Time;durP1;ratioP1;P1;durP2;ratioP2;P2;SDS_P1;SDS_P2;PMS_P1;PMS_P2;Temp;Humidity;BMP_temperature;BMP_pressure;BME280_temperature;BME280_humidity;BME280_pressure;Samples;Min_cycle;Max_cycle;Signal;HPM_P1;HPM_P2
2021/11/24 00:01:03;;;;;;;5.47;2.55;;;17.90;58.20;;;;;;4985265;28;20519;-58
2021/11/24 00:03:29;;;;;;;5.70;2.60;;;17.90;58.20;;;;;;4984648;28;20030;-59
2021/11/24 00:05:54;;;;;;;3.45;2.50;;;17.90;58.20;;;;;;4983557;28;20058;-59
2021/11/24 00:08:20;;;;;;;5.75;2.55;;;17.90;58.20;;;;;;4985165;28;20137;-60
2021/11/24 00:10:45;;;;;;;3.72;2.40;;;17.90;58.20;;;;;;4984086;28;20050;-58
2021/11/24 00:13:11;;;;;;;4.10;2.45;;;17.90;58.20;;;;;;4984367;28;20398;-59
2021/11/24 00:15:36;;;;;;;3.60;2.65;;;17.90;58.20;;;;;;4983196;28;20045;-59
2021/11/24 00:18:02;;;;;;;3.03;2.40;;;17.90;58.20;;;;;;4985120;28;20054;-59
2021/11/24 00:20:27;;;;;;;3.92;2.03;;;17.90;58.10;;;;;;4984607;28;20034;-60
2021/11/24 00:22:53;;;;;;;3.45;2.30;;;17.90;58.00;;;;;;4984972;28;20034;-59
2021/11/24 00:25:18;;;;;;;4.88;2.38;;;17.90;57.90;;;;;;4984914;28;20022;-59
2021/11/24 00:27:44;;;;;;;5.22;2.42;;;17.90;57.90;;;;;;4984509;28;20030;-60
2021/11/24 00:30:10;;;;;;;3.58;2.42;;;18.00;57.80;;;;;;4985264;28;20038;-59
2021/11/24 00:32:35;;;;;;;2.85;2.22;;;18.00;57.70;;;;;;4984925;28;20452;-59
2021/11/24 00:35:01;;;;;;;4.22;2.50;;;18.00;57.60;;;;;;4984851;28;20501;-59
2021/11/24 00:37:28;;;;;;;4.43;1.92;;;18.00;57.50;;;;;;4984876;28;20057;-59
2021/11/24 00:39:54;;;;;;;3.53;2.75;;;18.00;57.40;;;;;;4980080;28;20066;-59
2021/11/24 00:42:19;;;;;;;4.28;2.70;;;18.00;57.30;;;;;;4965909;28;20109;-60
2021/11/24 00:44:45;;;;;;;3.75;2.20;;;18.00;57.20;;;;;;4965397;28;20038;-59
2021/11/24 00:47:10;;;;;;;2.83;2.28;;;18.10;57.20;;;;;;4965832;28;20031;-59
2021/11/24 00:49:36;;;;;;;4.70;2.60;;;18.10;57.10;;;;;;4965423;28;20052;-58
2021/11/24 00:52:02;;;;;;;2.85;1.90;;;18.10;57.20;;;;;;4964156;28;20035;-59
2021/11/24 00:54:28;;;;;;;4.50;2.20;;;18.00;57.10;;;;;;4964329;28;20031;-60
2021/11/24 00:56:53;;;;;;;4.13;2.50;;;18.10;57.00;;;;;;4965118;28;20062;-59
2021/11/24 00:59:19;;;;;;;2.53;2.33;;;18.10;57.00;;;;;;4965127;28;20029;-59
2021/11/24 01:01:44;;;;;;;3.05;2.00;;;18.10;57.00;;;;;;4965737;28;20055;-59
2021/11/24 01:04:10;;;;;;;3.05;2.22;;;18.10;57.00;;;;;;4964820;28;20031;-59
2021/11/24 01:06:35;;;;;;;3.25;2.10;;;18.10;56.90;;;;;;4965652;28;20539;-59
2021/11/24 01:09:00;;;;;;;3.50;2.70;;;18.00;56.90;;;;;;4962795;28;20043;-58
2021/11/24 01:11:26;;;;;;;2.20;2.00;;;18.00;57.00;;;;;;4965604;28;20034;-59
2021/11/24 01:13:51;;;;;;;2.65;2.17;;;18.00;57.00;;;;;;4964692;28;20062;-60
2021/11/24 01:16:17;;;;;;;2.65;1.92;;;17.90;57.10;;;;;;4964251;28;20524;-59
2021/11/24 01:18:42;;;;;;;2.17;1.95;;;17.90;57.10;;;;;;4964173;28;20041;-59
2021/11/24 01:21:08;;;;;;;2.97;2.10;;;17.90;57.30;;;;;;4964274;28;20771;-60
2021/11/24 01:23:33;;;;;;;2.25;2.03;;;17.90;57.20;;;;;;4965438;28;20057;-60
2021/11/24 01:25:59;;;;;;;2.80;2.00;;;17.80;57.20;;;;;;4965022;28;20375;-59
2021/11/24 01:28:25;;;;;;;3.20;1.88;;;17.80;57.20;;;;;;4962996;28;20122;-59
2021/11/24 01:30:50;;;;;;;3.83;2.30;;;17.80;57.20;;;;;;4965278;28;20049;-59
2021/11/24 01:33:16;;;;;;;2.58;1.65;;;17.80;57.20;;;;;;4964793;28;20031;-59
2021/11/24 01:35:41;;;;;;;2.25;2.00;;;17.80;57.20;;;;;;4965175;28;20039;-59
2021/11/24 01:38:07;;;;;;;2.45;1.80;;;17.80;57.30;;;;;;4963453;28;20027;-59
2021/11/24 01:40:32;;;;;;;3.22;2.03;;;17.80;57.30;;;;;;4964597;28;20027;-58
2021/11/24 01:42:58;;;;;;;2.60;1.88;;;17.80;57.30;;;;;;4965749;28;20042;-58
2021/11/24 01:45:23;;;;;;;3.28;2.40;;;17.70;57.20;;;;;;4965165;28;20670;-59
2021/11/24 01:47:49;;;;;;;2.75;1.75;;;17.70;57.20;;;;;;4964741;28;20444;-59
2021/11/24 01:50:15;;;;;;;3.03;2.35;;;17.70;57.20;;;;;;4964877;28;20442;-60
2021/11/24 01:52:40;;;;;;;2.35;1.90;;;17.70;57.20;;;;;;4966455;28;20034;-61
2021/11/24 01:55:07;;;;;;;2.40;2.17;;;17.70;57.20;;;;;;4964607;28;20563;-59
2021/11/24 01:57:32;;;;;;;2.47;1.95;;;17.70;57.30;;;;;;4946712;28;20035;-59
2021/11/24 01:59:58;;;;;;;2.00;1.80;;;17.70;57.30;;;;;;4963042;28;20038;-59
2021/11/24 02:02:27;;;;;;;2.90;2.40;;;17.70;57.30;;;;;;4964468;28;20046;-59
2021/11/24 02:04:53;;;;;;;2.60;2.10;;;17.70;57.30;;;;;;4962733;28;20126;-57
2021/11/24 02:07:19;;;;;;;2.08;1.88;;;17.60;57.90;;;;;;4963707;28;20045;-56
2021/11/24 02:09:45;;;;;;;2.08;1.88;;;17.60;57.20;;;;;;4964153;28;20034;-59
2021/11/24 02:12:12;;;;;;;1.98;1.50;;;17.60;57.30;;;;;;4965298;28;20106;-58
2021/11/24 02:14:38;;;;;;;2.25;1.60;;;17.60;57.30;;;;;;4964889;28;20034;-59
2021/11/24 02:17:04;;;;;;;2.03;1.40;;;17.60;57.50;;;;;;4964657;28;20089;-58
2021/11/24 02:19:31;;;;;;;2.13;1.92;;;17.60;57.50;;;;;;4965531;28;20034;-59
2021/11/24 02:21:56;;;;;;;4.32;1.80;;;17.60;57.60;;;;;;4961232;28;20554;-59
2021/11/24 02:24:25;;;;;;;1.88;1.48;;;17.60;57.70;;;;;;4965995;28;20110;-59
2021/11/24 02:26:50;;;;;;;2.35;1.70;;;17.60;57.60;;;;;;4957551;28;20624;-58
2021/11/24 02:29:16;;;;;;;2.22;1.63;;;17.70;57.50;;;;;;4965797;28;20033;-58
2021/11/24 02:31:45;;;;;;;2.08;1.60;;;17.70;57.30;;;;;;4966634;28;20042;-58
2021/11/24 02:34:11;;;;;;;3.70;2.08;;;17.80;57.30;;;;;;4972387;28;20116;-59
2021/11/24 02:36:36;;;;;;;2.58;1.52;;;17.90;57.20;;;;;;4981464;28;20038;-59
2021/11/24 02:39:02;;;;;;;1.80;1.70;;;17.90;57.10;;;;;;4984838;28;20048;-59
2021/11/24 02:41:28;;;;;;;2.03;1.70;;;17.90;57.00;;;;;;4984592;28;20026;-59
2021/11/24 02:43:54;;;;;;;1.85;1.30;;;18.00;56.80;;;;;;4984126;28;20519;-58
2021/11/24 02:46:19;;;;;;;1.80;1.20;;;18.00;56.80;;;;;;4983974;28;20034;-59
2021/11/24 02:48:45;;;;;;;1.90;1.70;;;18.10;56.80;;;;;;4983922;28;20034;-60
2021/11/24 02:51:10;;;;;;;1.73;1.50;;;18.10;56.80;;;;;;4984438;28;20033;-59
2021/11/24 02:53:36;;;;;;;1.92;1.33;;;18.10;56.70;;;;;;4983955;28;20034;-59
2021/11/24 02:56:02;;;;;;;2.45;1.70;;;18.20;56.70;;;;;;4983929;28;20410;-59
2021/11/24 02:58:27;;;;;;;1.67;1.40;;;18.20;56.70;;;;;;4983930;28;20492;-59
2021/11/24 03:00:54;;;;;;;2.47;1.58;;;18.20;56.70;;;;;;4983231;28;20089;-59
2021/11/24 03:03:20;;;;;;;2.20;1.40;;;18.20;56.70;;;;;;4983645;28;20042;-60
2021/11/24 03:05:45;;;;;;;2.35;1.67;;;18.20;56.70;;;;;;4983594;28;20030;-58
2021/11/24 03:08:11;;;;;;;3.63;1.30;;;18.20;56.60;;;;;;4984510;28;20042;-59
2021/11/24 03:10:36;;;;;;;1.50;1.35;;;18.20;56.60;;;;;;4983503;28;20037;-59
2021/11/24 03:13:02;;;;;;;2.08;1.70;;;18.20;56.60;;;;;;4983852;28;20026;-58
2021/11/24 03:15:28;;;;;;;1.35;1.10;;;18.20;56.50;;;;;;4977994;28;20057;-59
2021/11/24 03:17:53;;;;;;;2.97;1.48;;;18.20;56.50;;;;;;4964255;28;20067;-60
2021/11/24 03:20:20;;;;;;;2.03;1.42;;;18.20;56.50;;;;;;4963869;28;20027;-60
2021/11/24 03:22:45;;;;;;;1.63;1.40;;;18.20;56.50;;;;;;4964086;28;20022;-59
2021/11/24 03:25:11;;;;;;;2.13;1.50;;;18.20;56.50;;;;;;4964647;28;20638;-60
2021/11/24 03:27:39;;;;;;;1.58;1.17;;;18.20;56.50;;;;;;4963413;28;20029;-59
2021/11/24 03:30:10;;;;;;;1.85;1.30;;;18.20;56.50;;;;;;4964050;28;20081;-60
2021/11/24 03:32:35;;;;;;;1.90;1.50;;;18.20;56.50;;;;;;4963869;28;20031;-59
2021/11/24 03:35:01;;;;;;;1.42;1.27;;;18.10;56.50;;;;;;4963395;28;20042;-59
2021/11/24 03:37:26;;;;;;;1.90;1.42;;;18.10;56.50;;;;;;4962387;28;20035;-59
2021/11/24 03:39:52;;;;;;;1.60;1.23;;;18.10;57.10;;;;;;4973146;28;20276;-59
2021/11/24 03:42:17;;;;;;;1.40;1.30;;;18.10;56.50;;;;;;4967464;28;20536;-59
2021/11/24 03:44:43;;;;;;;1.55;1.20;;;18.10;56.50;;;;;;4963553;28;20047;-58
2021/11/24 03:47:09;;;;;;;1.77;1.35;;;18.10;56.30;;;;;;4966911;28;20054;-57
2021/11/24 03:49:34;;;;;;;1.95;1.40;;;18.10;56.90;;;;;;4966874;28;20042;-57
2021/11/24 03:52:00;;;;;;;2.05;1.40;;;18.10;56.30;;;;;;4966854;28;20183;-56
2021/11/24 03:54:25;;;;;;;1.40;1.13;;;18.10;56.20;;;;;;4966788;28;20553;-58
2021/11/24 03:56:51;;;;;;;1.35;1.25;;;18.10;56.10;;;;;;4967364;28;20050;-49
2021/11/24 03:59:16;;;;;;;1.30;1.20;;;18.10;56.10;;;;;;4967069;28;20093;-53
2021/11/24 04:01:42;;;;;;;2.15;1.35;;;18.10;56.70;;;;;;4966207;28;20039;-57
2021/11/24 04:04:07;;;;;;;1.85;1.15;;;18.10;56.10;;;;;;4967456;28;20082;-60
2021/11/24 04:06:33;;;;;;;1.15;1.00;;;18.10;56.10;;;;;;4967506;28;20037;-58
2021/11/24 04:08:59;;;;;;;1.20;1.10;;;18.10;56.10;;;;;;4962645;28;20035;-59
2021/11/24 04:11:25;;;;;;;0.93;0.93;;;18.00;56.10;;;;;;4962659;28;20062;-55
2021/11/24 04:13:50;;;;;;;1.08;0.80;;;18.00;56.10;;;;;;4965131;28;20490;-60
2021/11/24 04:16:16;;;;;;;1.35;1.10;;;18.00;56.10;;;;;;4967201;28;20093;-59
2021/11/24 04:18:41;;;;;;;1.55;1.30;;;17.90;56.10;;;;;;4965059;28;20034;-58
2021/11/24 04:21:07;;;;;;;1.13;1.02;;;17.90;56.10;;;;;;4963804;28;20026;-59
2021/11/24 04:23:32;;;;;;;1.33;1.20;;;17.90;56.20;;;;;;4966887;28;20117;-52
2021/11/24 04:25:58;;;;;;;1.08;0.98;;;17.90;56.30;;;;;;4965478;28;20077;-59
2021/11/24 04:28:23;;;;;;;1.23;1.10;;;17.90;56.20;;;;;;4962173;28;20042;-57
2021/11/24 04:30:49;;;;;;;1.40;1.20;;;17.90;56.20;;;;;;4966108;28;20118;-52
2021/11/24 04:33:14;;;;;;;1.10;1.00;;;17.90;56.20;;;;;;4967248;28;20027;-57
2021/11/24 04:35:40;;;;;;;1.42;1.13;;;17.90;56.30;;;;;;4982690;23;20061;-55
2021/11/24 04:38:06;;;;;;;1.65;0.95;;;17.90;56.40;;;;;;4999636;28;20021;-54
2021/11/24 04:40:32;;;;;;;1.10;1.00;;;17.80;56.30;;;;;;4998356;28;20057;-60
2021/11/24 04:42:59;;;;;;;0.90;0.90;;;17.90;56.40;;;;;;5000826;28;20037;-58
2021/11/24 04:45:27;;;;;;;0.93;0.90;;;17.80;56.50;;;;;;4991293;28;20412;-60
2021/11/24 04:47:53;;;;;;;1.23;1.02;;;17.80;56.60;;;;;;5014017;28;20049;-57
2021/11/24 04:50:18;;;;;;;1.88;0.93;;;17.80;56.70;;;;;;4996781;28;20398;-59
2021/11/24 04:52:44;;;;;;;1.50;0.95;;;17.70;56.80;;;;;;4983996;28;20030;-60
2021/11/24 04:55:10;;;;;;;0.80;0.80;;;17.80;56.80;;;;;;5001702;28;20092;-57
2021/11/24 04:57:35;;;;;;;1.15;1.05;;;17.80;56.80;;;;;;4999952;28;20058;-59
2021/11/24 05:00:07;;;;;;;1.55;1.13;;;17.80;56.80;;;;;;4975491;28;20442;-57
2021/11/24 05:02:33;;;;;;;1.42;0.95;;;17.80;56.70;;;;;;5001489;28;20137;-53
2021/11/24 05:04:59;;;;;;;0.77;0.77;;;17.90;56.70;;;;;;5006032;28;20033;-59
2021/11/24 05:07:24;;;;;;;1.02;0.93;;;17.90;56.60;;;;;;5000552;28;20053;-58
2021/11/24 05:09:50;;;;;;;1.00;0.90;;;18.00;56.60;;;;;;5001140;28;20523;-60
2021/11/24 05:12:15;;;;;;;1.38;0.70;;;17.90;56.50;;;;;;5000398;28;20033;-53
2021/11/24 05:14:42;;;;;;;1.75;1.05;;;18.00;56.50;;;;;;5000140;28;20396;-56
2021/11/24 05:17:11;;;;;;;2.20;0.95;;;17.90;56.50;;;;;;5002977;28;20530;-55
2021/11/24 05:19:39;;;;;;;3.35;0.98;;;18.00;56.60;;;;;;4999712;28;20056;-52
2021/11/24 05:22:05;;;;;;;1.08;0.95;;;17.90;56.50;;;;;;4999575;28;20034;-57
2021/11/24 05:24:30;;;;;;;2.42;0.90;;;17.90;56.60;;;;;;5001697;28;20049;-54
2021/11/24 05:26:56;;;;;;;3.33;0.90;;;17.90;56.60;;;;;;4997072;28;20503;-54
2021/11/24 05:29:22;;;;;;;1.52;1.00;;;17.90;56.50;;;;;;5000592;28;20376;-57
2021/11/24 05:31:48;;;;;;;1.73;1.10;;;18.00;56.60;;;;;;5001580;28;20117;-53
2021/11/24 05:34:13;;;;;;;1.27;0.95;;;17.90;56.60;;;;;;5000567;28;20125;-56
2021/11/24 05:36:39;;;;;;;2.00;1.10;;;17.90;56.50;;;;;;5001348;28;20222;-53
2021/11/24 05:39:07;;;;;;;1.85;1.10;;;17.90;56.50;;;;;;5001805;28;20026;-54
2021/11/24 05:41:32;;;;;;;1.30;1.20;;;17.90;56.50;;;;;;5001536;28;20554;-57
2021/11/24 05:44:14;;;;;;;4.35;1.10;;;18.00;56.50;;;;;;5001742;28;20049;-52
2021/11/24 05:46:47;;;;;;;2.25;1.27;;;17.90;56.40;;;;;;4994250;28;20029;-59
2021/11/24 05:49:13;;;;;;;1.77;1.38;;;18.00;56.40;;;;;;4998748;28;20041;-51
2021/11/24 05:51:38;;;;;;;2.97;0.90;;;18.00;56.30;;;;;;5000817;28;20026;-50
2021/11/24 05:54:04;;;;;;;4.82;1.50;;;18.00;56.20;;;;;;5000788;28;20045;-53
2021/11/24 05:56:29;;;;;;;2.95;1.20;;;18.00;56.20;;;;;;5002441;28;20030;-59
2021/11/24 05:58:55;;;;;;;1.73;1.50;;;18.00;56.20;;;;;;5001120;28;20415;-59
2021/11/24 06:01:20;;;;;;;2.05;1.30;;;18.00;56.30;;;;;;5000810;28;20026;-53
2021/11/24 06:03:46;;;;;;;3.00;1.40;;;18.00;56.40;;;;;;5001850;28;20034;-59
2021/11/24 06:06:11;;;;;;;2.72;1.23;;;18.00;56.30;;;;;;5002108;28;20050;-59
2021/11/24 06:08:37;;;;;;;4.10;1.40;;;18.00;56.30;;;;;;5001043;28;20450;-52
2021/11/24 06:11:02;;;;;;;6.13;1.40;;;18.00;56.30;;;;;;5001322;28;20034;-51
2021/11/24 06:13:28;;;;;;;3.00;1.40;;;18.00;56.30;;;;;;5001419;28;20026;-55
2021/11/24 06:15:53;;;;;;;3.85;1.17;;;18.00;56.30;;;;;;4999703;28;20030;-52
2021/11/24 06:18:20;;;;;;;3.50;2.00;;;18.00;56.30;;;;;;5000832;28;20030;-52
2021/11/24 06:20:46;;;;;;;10.23;4.90;;;18.00;56.60;;;;;;5000812;28;20025;-59
2021/11/24 06:23:11;;;;;;;18.15;7.32;;;18.00;57.00;;;;;;5001505;28;20034;-60
2021/11/24 06:25:37;;;;;;;22.00;7.68;;;18.00;57.20;;;;;;5000200;28;20753;-52
2021/11/24 06:28:04;;;;;;;21.60;6.63;;;17.90;57.40;;;;;;5000143;28;20103;-55
2021/11/24 06:30:29;;;;;;;14.57;6.45;;;17.90;57.50;;;;;;4999345;28;20055;-49
2021/11/24 06:32:55;;;;;;;20.27;6.60;;;17.90;57.70;;;;;;5001606;28;20475;-53
2021/11/24 06:35:20;;;;;;;22.90;6.68;;;17.90;57.90;;;;;;4998966;28;20046;-59
2021/11/24 06:37:46;;;;;;;18.23;6.50;;;17.80;57.90;;;;;;4999994;28;20545;-57
2021/11/24 06:40:12;;;;;;;17.80;6.88;;;17.80;58.00;;;;;;5000768;28;20037;-52
2021/11/24 06:42:38;;;;;;;15.32;6.07;;;17.90;58.30;;;;;;4980769;28;20041;-53
2021/11/24 06:45:04;;;;;;;20.38;6.65;;;17.90;58.60;;;;;;5011766;28;20034;-60
2021/11/24 06:47:29;;;;;;;16.00;5.53;;;17.90;58.40;;;;;;4997724;28;20040;-56
2021/11/24 06:49:55;;;;;;;13.60;5.60;;;17.80;58.50;;;;;;5000501;28;20030;-57
2021/11/24 06:52:21;;;;;;;13.90;5.32;;;17.80;58.60;;;;;;5001525;28;20590;-57
2021/11/24 06:54:46;;;;;;;9.75;5.55;;;17.80;58.60;;;;;;4981930;28;20484;-59
2021/11/24 06:57:12;;;;;;;11.00;4.72;;;17.80;58.60;;;;;;5001163;28;20034;-54
2021/11/24 06:59:37;;;;;;;22.00;5.85;;;17.80;58.70;;;;;;4999225;28;20088;-60
2021/11/24 07:02:03;;;;;;;16.00;5.35;;;17.80;59.30;;;;;;4998102;28;20782;-59
2021/11/24 07:04:29;;;;;;;12.00;4.75;;;17.80;58.80;;;;;;5000345;28;20040;-51
2021/11/24 07:06:54;;;;;;;12.00;4.55;;;17.80;58.70;;;;;;5000959;28;20034;-53
2021/11/24 07:09:22;;;;;;;11.85;4.50;;;17.70;58.70;;;;;;4983929;28;20058;-61
2021/11/24 07:11:48;;;;;;;10.35;4.60;;;17.80;58.70;;;;;;5002897;28;20692;-58
2021/11/24 07:14:13;;;;;;;11.75;4.43;;;17.80;58.60;;;;;;5005055;28;20079;-61
2021/11/24 07:16:39;;;;;;;8.65;4.18;;;17.80;58.50;;;;;;5005471;28;20022;-58
2021/11/24 07:19:04;;;;;;;6.90;4.00;;;17.80;59.20;;;;;;5004448;28;20026;-58
2021/11/24 07:21:30;;;;;;;10.88;4.43;;;17.80;58.50;;;;;;5005011;28;20038;-60
2021/11/24 07:23:55;;;;;;;12.13;4.53;;;17.70;58.40;;;;;;5003524;28;20050;-60
2021/11/24 07:26:21;;;;;;;7.65;3.50;;;17.70;58.40;;;;;;5004973;28;20065;-57
2021/11/24 07:28:47;;;;;;;7.82;4.47;;;17.70;58.40;;;;;;5003556;28;20041;-62
2021/11/24 07:31:12;;;;;;;10.27;4.00;;;17.70;58.40;;;;;;5005076;28;20030;-57
2021/11/24 07:33:38;;;;;;;8.05;4.15;;;17.70;58.50;;;;;;5003940;28;20119;-56
2021/11/24 07:36:04;;;;;;;7.88;3.58;;;17.80;58.40;;;;;;5003003;28;20151;-57
2021/11/24 07:38:29;;;;;;;8.10;4.25;;;17.70;58.30;;;;;;5003395;28;20034;-58
2021/11/24 07:40:55;;;;;;;7.75;4.18;;;17.70;58.20;;;;;;5003374;28;20060;-54
2021/11/24 07:43:21;;;;;;;9.38;4.38;;;17.70;58.20;;;;;;5003966;28;20057;-55
2021/11/24 07:45:47;;;;;;;9.65;3.35;;;17.80;58.30;;;;;;5001324;28;20100;-57
2021/11/24 07:48:12;;;;;;;7.25;3.65;;;17.80;58.20;;;;;;5004536;28;20026;-57
2021/11/24 07:50:38;;;;;;;9.43;3.40;;;17.70;58.10;;;;;;5003630;28;20061;-55
2021/11/24 07:53:04;;;;;;;6.03;3.05;;;17.80;58.10;;;;;;5004149;28;20037;-53
2021/11/24 07:55:29;;;;;;;7.13;3.55;;;17.70;58.10;;;;;;4998231;28;20023;-61
2021/11/24 07:57:54;;;;;;;7.47;3.78;;;17.70;58.10;;;;;;5003354;28;20033;-60
2021/11/24 08:00:20;;;;;;;5.10;3.00;;;17.70;58.00;;;;;;5003878;28;20022;-59
2021/11/24 08:02:46;;;;;;;5.82;3.47;;;17.70;58.00;;;;;;4994440;28;20806;-55
2021/11/24 08:05:11;;;;;;;7.20;3.33;;;17.70;58.00;;;;;;5002980;28;20113;-52
2021/11/24 08:07:37;;;;;;;4.38;2.85;;;17.70;57.90;;;;;;5004874;28;20056;-55
2021/11/24 08:10:06;;;;;;;4.55;3.00;;;17.70;57.90;;;;;;5003807;28;20038;-56
2021/11/24 08:12:32;;;;;;;6.00;3.20;;;17.70;57.90;;;;;;5003150;28;20041;-56
2021/11/24 08:14:57;;;;;;;5.38;2.95;;;17.70;57.90;;;;;;5004187;28;20414;-56
2021/11/24 08:17:23;;;;;;;5.63;3.78;;;17.70;57.90;;;;;;5003682;28;20119;-51
2021/11/24 08:19:49;;;;;;;6.25;3.35;;;17.70;57.50;;;;;;5002340;28;20036;-54
2021/11/24 08:22:14;;;;;;;6.60;3.28;;;17.80;57.20;;;;;;5004363;28;20495;-58
2021/11/24 08:24:40;;;;;;;2.92;2.67;;;17.80;56.90;;;;;;5004486;28;20041;-57
2021/11/24 08:27:05;;;;;;;5.55;3.58;;;17.80;56.80;;;;;;5003441;28;20034;-56
2021/11/24 08:29:31;;;;;;;5.80;3.15;;;17.90;56.60;;;;;;5002950;28;20037;-51
2021/11/24 08:31:56;;;;;;;3.58;2.38;;;17.80;56.70;;;;;;5004104;28;20042;-55
2021/11/24 08:34:22;;;;;;;5.68;3.13;;;17.80;56.80;;;;;;5003001;28;20068;-58
2021/11/24 08:36:49;;;;;;;3.95;2.88;;;17.80;56.90;;;;;;4984737;28;20715;-57
2021/11/24 08:39:15;;;;;;;4.00;2.63;;;17.80;57.20;;;;;;5004092;28;20033;-55
2021/11/24 08:41:40;;;;;;;7.35;3.38;;;17.80;57.30;;;;;;5002948;28;20022;-59
2021/11/24 08:44:06;;;;;;;3.63;2.72;;;17.80;57.50;;;;;;5003790;28;20057;-59
2021/11/24 08:46:32;;;;;;;4.93;2.58;;;17.80;57.50;;;;;;5003217;28;20052;-55
2021/11/24 08:48:57;;;;;;;3.97;2.40;;;17.80;57.60;;;;;;5003215;28;20658;-51
2021/11/24 08:51:23;;;;;;;4.05;2.47;;;17.70;57.70;;;;;;5003864;28;20418;-59
2021/11/24 08:53:48;;;;;;;5.85;2.42;;;17.70;57.70;;;;;;5003594;28;20050;-57
2021/11/24 08:56:14;;;;;;;5.88;2.10;;;17.70;57.90;;;;;;5002289;28;20042;-58
2021/11/24 08:58:40;;;;;;;5.47;2.22;;;17.70;58.30;;;;;;5002410;28;20026;-59
2021/11/24 09:01:05;;;;;;;5.50;1.85;;;17.70;58.20;;;;;;5002404;28;20030;-58
2021/11/24 09:03:31;;;;;;;4.45;1.98;;;17.70;58.20;;;;;;5002967;28;20137;-51
2021/11/24 09:05:57;;;;;;;3.28;1.90;;;17.70;58.30;;;;;;5001848;28;20045;-57
2021/11/24 09:08:22;;;;;;;5.03;2.10;;;17.70;58.30;;;;;;5002676;28;20487;-54
2021/11/24 09:10:48;;;;;;;4.80;1.90;;;17.80;58.40;;;;;;5001181;28;20572;-58
2021/11/24 09:13:13;;;;;;;4.32;1.88;;;17.70;58.40;;;;;;5002085;28;21340;-53
2021/11/24 09:15:40;;;;;;;2.55;2.05;;;17.70;58.50;;;;;;4970055;28;20065;-59
2021/11/24 09:18:06;;;;;;;4.82;2.00;;;17.70;58.40;;;;;;4999065;28;20383;-54
2021/11/24 09:20:33;;;;;;;3.38;1.60;;;17.80;58.40;;;;;;5002323;28;20112;-60
2021/11/24 09:22:58;;;;;;;5.15;2.22;;;17.80;58.40;;;;;;5003093;28;20515;-50
2021/11/24 09:25:34;;;;;;;6.88;2.75;;;17.80;58.40;;;;;;4996614;28;20038;-51
2021/11/24 09:28:09;;;;;;;4.45;1.75;;;17.80;58.30;;;;;;4985726;28;20522;-57
2021/11/24 09:30:34;;;;;;;8.50;2.25;;;17.80;58.30;;;;;;4990803;28;20058;-52
2021/11/24 09:33:00;;;;;;;2.17;1.70;;;17.80;58.30;;;;;;5003109;28;20113;-54
2021/11/24 09:35:25;;;;;;;4.40;1.88;;;17.80;58.30;;;;;;5002267;28;20048;-56
2021/11/24 09:37:51;;;;;;;6.15;1.98;;;17.80;58.30;;;;;;5001970;28;20038;-55
2021/11/24 09:40:16;;;;;;;5.72;3.10;;;17.80;58.30;;;;;;5001607;28;20050;-55
2021/11/24 09:42:44;;;;;;;4.60;2.30;;;17.80;58.30;;;;;;5002759;28;20113;-53
2021/11/24 09:45:09;;;;;;;5.40;1.63;;;17.90;58.30;;;;;;4989732;28;20032;-58
2021/11/24 09:47:35;;;;;;;6.72;2.15;;;17.80;58.30;;;;;;5002588;28;20026;-51
2021/11/24 09:50:02;;;;;;;6.88;2.13;;;17.90;58.40;;;;;;5002258;28;20040;-51
2021/11/24 09:52:27;;;;;;;7.97;2.03;;;17.90;58.40;;;;;;4987935;28;20041;-55
2021/11/24 09:54:53;;;;;;;3.35;1.58;;;17.90;58.40;;;;;;4983923;28;20129;-58
2021/11/24 09:57:20;;;;;;;4.15;1.70;;;17.90;58.50;;;;;;5001254;28;20036;-59
2021/11/24 09:59:46;;;;;;;3.97;1.67;;;17.90;58.40;;;;;;5003102;28;20030;-62
2021/11/24 10:02:12;;;;;;;4.03;1.98;;;17.90;58.40;;;;;;4990342;28;20512;-60
2021/11/24 10:04:40;;;;;;;8.18;1.92;;;17.90;58.40;;;;;;4994387;28;20040;-55
2021/11/24 10:07:05;;;;;;;4.40;1.77;;;17.90;58.40;;;;;;5001382;28;20029;-58
2021/11/24 10:09:31;;;;;;;4.03;1.63;;;17.90;58.30;;;;;;4984332;28;20099;-58
2021/11/24 10:11:56;;;;;;;3.10;1.70;;;17.90;58.40;;;;;;5001994;28;20439;-54
2021/11/24 10:14:22;;;;;;;3.67;1.65;;;17.90;59.00;;;;;;5002148;28;20217;-54
2021/11/24 10:16:50;;;;;;;4.10;1.70;;;17.90;58.30;;;;;;4985207;28;20087;-52
2021/11/24 10:19:15;;;;;;;5.35;1.85;;;17.90;58.30;;;;;;5001420;28;20157;-58
2021/11/24 10:22:02;;;;;;;5.78;1.55;;;17.90;58.30;;;;;;5001537;28;20516;-57
2021/11/24 10:24:38;;;;;;;3.42;2.00;;;17.90;58.30;;;;;;4998744;28;20044;-51
2021/11/24 10:27:08;;;;;;;3.97;1.83;;;17.90;58.20;;;;;;4982640;28;20026;-57
2021/11/24 10:29:34;;;;;;;2.30;1.50;;;17.90;58.10;;;;;;4984009;28;20026;-59
2021/11/24 10:32:02;;;;;;;2.25;1.60;;;17.90;58.10;;;;;;4984259;28;20038;-54
2021/11/24 10:34:35;;;;;;;2.47;1.70;;;17.90;58.00;;;;;;5001967;28;20030;-53
2021/11/24 10:37:12;;;;;;;3.28;1.52;;;17.90;58.00;;;;;;4986725;23;20116;-59
2021/11/24 10:39:45;;;;;;;2.80;1.23;;;17.90;58.00;;;;;;4979112;28;20427;-59
2021/11/24 10:42:11;;;;;;;3.15;2.05;;;17.90;57.90;;;;;;4996937;28;20041;-60
2021/11/24 10:44:37;;;;;;;2.97;1.38;;;18.00;57.90;;;;;;4997386;28;20031;-59
2021/11/24 10:47:04;;;;;;;4.80;1.85;;;17.90;57.80;;;;;;4997976;28;20113;-60
2021/11/24 10:49:36;;;;;;;1.45;1.30;;;17.90;57.70;;;;;;5000904;28;20037;-60
2021/11/24 10:52:13;;;;;;;2.20;1.73;;;18.00;57.80;;;;;;5001819;28;20434;-57
2021/11/24 10:54:39;;;;;;;4.70;1.65;;;17.90;57.60;;;;;;5002637;28;20224;-60
2021/11/24 10:57:09;;;;;;;2.65;1.40;;;17.90;57.50;;;;;;4968970;28;20160;-57
2021/11/24 10:59:39;;;;;;;3.00;1.60;;;17.90;57.50;;;;;;5002290;28;20030;-60
2021/11/24 11:02:14;;;;;;;2.97;1.55;;;17.90;57.50;;;;;;5002787;28;20034;-59
2021/11/24 11:05:04;;;;;;;3.47;1.52;;;17.90;57.40;;;;;;5001839;28;20129;-58
2021/11/24 11:07:40;;;;;;;3.60;1.45;;;17.90;57.40;;;;;;4983447;28;20034;-58
2021/11/24 11:10:15;;;;;;;4.53;1.67;;;17.90;57.30;;;;;;5001806;28;20497;-59
2021/11/24 11:12:43;;;;;;;2.00;1.50;;;17.90;57.30;;;;;;4985057;28;20026;-60
2021/11/24 11:15:20;;;;;;;1.77;1.33;;;17.90;57.30;;;;;;5002251;28;20452;-60
2021/11/24 11:17:48;;;;;;;2.53;1.77;;;17.90;57.30;;;;;;4986329;28;20437;-59
2021/11/24 11:20:13;;;;;;;2.58;1.65;;;17.90;57.30;;;;;;5025657;28;20033;-59
2021/11/24 11:22:39;;;;;;;2.53;1.40;;;17.90;57.40;;;;;;5006572;28;20034;-60
2021/11/24 11:25:05;;;;;;;2.85;1.67;;;17.90;57.40;;;;;;5003085;28;20502;-57
2021/11/24 11:27:30;;;;;;;4.00;1.30;;;17.90;57.40;;;;;;5000961;28;20068;-57
2021/11/24 11:29:59;;;;;;;1.65;1.55;;;17.80;57.30;;;;;;4974401;28;20062;-58
2021/11/24 11:32:24;;;;;;;1.88;1.30;;;17.80;57.30;;;;;;4987232;28;20109;-59
2021/11/24 11:34:50;;;;;;;1.92;1.38;;;17.90;57.40;;;;;;4972617;28;20145;-62
2021/11/24 11:37:16;;;;;;;3.47;1.35;;;17.90;57.30;;;;;;5003614;28;20045;-60
2021/11/24 11:39:41;;;;;;;2.17;1.30;;;17.80;57.30;;;;;;4984117;28;20089;-60
2021/11/24 11:42:11;;;;;;;1.40;1.23;;;17.80;57.30;;;;;;5002967;28;20030;-59
2021/11/24 11:44:36;;;;;;;1.50;1.05;;;17.80;57.30;;;;;;4986864;28;20026;-59
2021/11/24 11:47:02;;;;;;;3.85;1.13;;;17.80;57.40;;;;;;4992210;28;20030;-59
2021/11/24 11:49:27;;;;;;;5.15;1.65;;;17.80;57.50;;;;;;5013377;28;20043;-60
2021/11/24 11:51:54;;;;;;;3.65;1.55;;;17.80;57.50;;;;;;4990580;28;20088;-60
2021/11/24 11:54:26;;;;;;;3.53;1.27;;;17.70;57.40;;;;;;4997011;28;20029;-65
2021/11/24 11:56:52;;;;;;;2.38;1.25;;;17.70;57.50;;;;;;5006549;28;20153;-59
2021/11/24 11:59:18;;;;;;;1.58;1.40;;;17.70;57.50;;;;;;5013392;28;20112;-60
2021/11/24 12:01:47;;;;;;;1.30;1.20;;;17.70;57.50;;;;;;5008642;28;20030;-60
2021/11/24 12:04:15;;;;;;;1.40;1.30;;;17.70;57.50;;;;;;5011012;28;20030;-60
2021/11/24 12:06:45;;;;;;;1.88;1.02;;;17.70;57.70;;;;;;5020334;28;20033;-59
2021/11/24 12:09:14;;;;;;;3.47;1.27;;;17.70;57.90;;;;;;5004482;28;20044;-60
2021/11/24 12:14:42;;;;;;;3.03;1.40;;;17.60;58.20;;;;;;5014456;28;20033;-58
2021/11/24 12:17:27;;;;;;;1.55;1.05;;;17.60;58.40;;;;;;5001471;28;20038;-59
2021/11/24 12:19:52;;;;;;;4.65;1.60;;;17.60;58.70;;;;;;5008176;28;20041;-60
2021/11/24 12:22:44;;;;;;;3.40;1.20;;;17.60;58.90;;;;;;5003694;28;20033;-59
2021/11/24 12:25:23;;;;;;;1.70;1.55;;;17.60;58.90;;;;;;5003846;28;20499;-60
2021/11/24 12:28:01;;;;;;;3.03;1.20;;;17.50;59.00;;;;;;5004808;28;20052;-58
2021/11/24 12:33:03;;;;;;;3.13;1.20;;;17.50;59.50;;;;;;5010390;28;20506;-60
2021/11/24 12:35:28;;;;;;;3.78;1.30;;;17.50;59.70;;;;;;5005287;28;20150;-60
2021/11/24 12:37:58;;;;;;;1.42;0.90;;;17.50;59.70;;;;;;5004661;28;20098;-60
2021/11/24 12:40:27;;;;;;;5.32;1.23;;;17.50;59.70;;;;;;5004495;28;20034;-59
2021/11/24 12:43:00;;;;;;;3.03;1.35;;;17.50;59.70;;;;;;4987411;28;20036;-60
2021/11/24 12:45:27;;;;;;;6.97;1.00;;;17.50;59.60;;;;;;5004753;28;20057;-59
2021/11/24 12:48:05;;;;;;;1.52;0.90;;;17.50;59.70;;;;;;4987522;28;20025;-59